createdAt,value
2024-02-19T00:02:05.033Z,7.86
2024-02-19T00:06:08.570Z,7.84
2024-02-19T00:10:12.189Z,7.83
2024-02-19T00:14:16.696Z,7.85
2024-02-19T00:18:19.812Z,7.84
2024-02-19T00:22:23.064Z,7.85
2024-02-19T00:26:26.442Z,7.87
2024-02-19T00:30:30.730Z,7.88
2024-02-19T00:34:33.663Z,7.89
2024-02-19T00:38:36.613Z,7.90
2024-02-19T00:42:39.647Z,7.92
2024-02-19T00:46:44.181Z,7.92
2024-02-19T00:50:47.093Z,7.93
2024-02-19T00:54:50.087Z,7.94
2024-02-19T00:58:53.024Z,7.96
2024-02-19T01:02:57.596Z,7.94
2024-02-19T01:07:00.537Z,7.94
2024-02-19T01:11:04.186Z,7.96
2024-02-19T01:15:07.997Z,7.96
2024-02-19T01:19:12.706Z,7.95
2024-02-19T01:23:18.164Z,7.96
2024-02-19T01:27:22.430Z,7.93
2024-02-19T01:31:25.609Z,7.94
2024-02-19T01:35:29.938Z,7.94
2024-02-19T01:39:32.857Z,7.94
2024-02-19T01:43:37.298Z,7.95
2024-02-19T01:47:40.248Z,7.95
2024-02-19T01:51:44.701Z,7.95
2024-02-19T01:55:50.511Z,7.95
2024-02-19T01:59:53.827Z,7.95
2024-02-19T02:03:57.287Z,7.93
2024-02-19T02:08:03.116Z,7.95
2024-02-19T02:12:07.441Z,7.95
2024-02-19T02:16:10.601Z,7.95
2024-02-19T02:20:14.173Z,7.95
2024-02-19T02:24:20.293Z,7.98
2024-02-19T02:28:24.979Z,7.97
2024-02-19T02:32:27.915Z,7.97
2024-02-19T02:36:30.890Z,7.96
2024-02-19T02:40:33.821Z,7.96
2024-02-19T02:44:38.148Z,7.96
2024-02-19T02:48:41.179Z,7.97
2024-02-19T02:52:44.710Z,7.96
2024-02-19T02:56:48.288Z,7.95
2024-02-19T03:00:53.009Z,7.94
2024-02-19T03:04:56.111Z,7.95
2024-02-19T03:08:59.199Z,7.95
2024-02-19T03:13:02.442Z,7.95
2024-02-19T03:17:08.425Z,7.96
2024-02-19T03:21:17.177Z,7.98
2024-02-19T03:25:20.745Z,7.97
2024-02-19T03:29:23.691Z,7.95
2024-02-19T03:33:28.200Z,7.93
2024-02-19T03:37:31.260Z,7.94
2024-02-19T03:41:34.471Z,7.92
2024-02-19T03:45:38.717Z,7.93
2024-02-19T03:49:43.044Z,7.91
2024-02-19T03:53:46.021Z,7.92
2024-02-19T03:57:49.013Z,7.90
2024-02-19T04:01:52.027Z,7.90
2024-02-19T04:05:56.478Z,7.89
2024-02-19T04:09:59.462Z,7.89
2024-02-19T04:14:02.410Z,7.88
2024-02-19T04:18:05.583Z,7.88
2024-02-19T04:22:09.972Z,7.90
2024-02-19T04:26:12.949Z,7.90
2024-02-19T04:30:16.288Z,7.89
2024-02-19T04:34:19.467Z,7.88
2024-02-19T04:38:23.961Z,7.91
2024-02-19T04:42:26.899Z,7.91
2024-02-19T04:46:29.821Z,7.94
2024-02-19T04:50:32.740Z,7.94
2024-02-19T04:55:06.481Z,7.94
2024-02-19T04:59:09.453Z,7.93
2024-02-19T05:03:14.758Z,7.95
2024-02-19T05:07:19.067Z,7.96
2024-02-19T05:11:24.016Z,7.96
2024-02-19T05:15:27.038Z,7.98
2024-02-19T05:19:30.057Z,7.99
2024-02-19T05:23:33.085Z,7.99
2024-02-19T05:27:37.425Z,8.01
2024-02-19T05:31:41.375Z,8.01
2024-02-19T05:35:44.974Z,8.03
2024-02-19T05:39:48.164Z,8.03
2024-02-19T05:43:52.522Z,8.03
2024-02-19T05:47:55.741Z,8.05
2024-02-19T05:51:58.713Z,8.05
2024-02-19T05:56:01.932Z,8.04
2024-02-19T06:00:12.173Z,8.06
2024-02-19T06:04:15.309Z,8.06
2024-02-19T06:08:19.102Z,8.08
2024-02-19T06:12:22.286Z,8.06
2024-02-19T06:16:26.571Z,8.06
2024-02-19T06:20:29.520Z,8.04
2024-02-19T06:24:32.440Z,8.00
2024-02-19T06:28:35.317Z,7.96
2024-02-19T06:32:39.854Z,7.93
2024-02-19T06:36:42.819Z,7.92
2024-02-19T06:40:45.960Z,7.92
2024-02-19T06:44:49.099Z,7.94
2024-02-19T06:48:53.445Z,7.95
2024-02-19T06:52:56.485Z,7.98
2024-02-19T06:56:59.431Z,8.01
2024-02-19T07:01:05.407Z,8.04
2024-02-19T07:05:10.741Z,8.06
2024-02-19T07:09:13.799Z,8.08
2024-02-19T07:13:16.708Z,8.13
2024-02-19T07:17:19.641Z,8.19
2024-02-19T07:21:25.060Z,8.25
2024-02-19T07:25:28.127Z,8.31
2024-02-19T07:29:31.228Z,8.38
2024-02-19T07:33:36.054Z,8.43
2024-02-19T07:37:40.598Z,8.47
2024-02-19T07:41:43.777Z,8.49
2024-02-19T07:45:46.808Z,8.52
2024-02-19T07:49:49.815Z,8.55
2024-02-19T07:53:54.108Z,8.54
2024-02-19T07:57:57.023Z,8.51
2024-02-19T08:02:01.298Z,8.52
2024-02-19T08:06:04.815Z,8.55
2024-02-19T08:10:10.636Z,8.61
2024-02-19T08:14:13.669Z,8.65
2024-02-19T08:18:18.327Z,8.68
2024-02-19T08:22:21.512Z,8.72
2024-02-19T08:26:26.852Z,8.81
2024-02-19T08:30:29.804Z,8.85
2024-02-19T08:34:32.776Z,8.87
2024-02-19T08:38:35.814Z,8.86
2024-02-19T08:42:40.361Z,8.89
2024-02-19T08:46:43.326Z,8.92
2024-02-19T08:50:46.739Z,8.98
2024-02-19T08:54:50.250Z,8.99
2024-02-19T08:58:54.707Z,9.01
2024-02-19T09:02:57.832Z,9.04
2024-02-19T09:07:00.962Z,9.06
2024-02-19T09:11:04.292Z,9.07
2024-02-19T09:15:09.189Z,9.13
2024-02-19T09:19:12.156Z,9.18
2024-02-19T09:23:17.831Z,9.21
2024-02-19T09:27:21.885Z,9.24
2024-02-19T09:31:27.352Z,9.28
2024-02-19T09:35:30.384Z,9.33
2024-02-19T09:39:33.353Z,9.35
2024-02-19T09:43:36.443Z,9.40
2024-02-19T09:47:46.381Z,9.41
2024-02-19T09:51:56.463Z,9.39
2024-02-19T09:55:59.535Z,9.35
2024-02-19T10:00:05.362Z,9.35
2024-02-19T10:04:15.580Z,9.38
2024-02-19T10:08:18.603Z,9.44
2024-02-19T10:12:21.675Z,9.47
2024-02-19T10:16:24.619Z,9.54
2024-02-19T10:20:29.610Z,9.61
2024-02-19T10:24:33.288Z,9.65
2024-02-19T10:28:37.250Z,9.73
2024-02-19T10:32:42.164Z,9.76
2024-02-19T10:36:47.760Z,9.75
2024-02-19T10:40:51.059Z,9.70
2024-02-19T10:44:55.059Z,9.68
2024-02-19T10:48:59.015Z,9.71
2024-02-19T10:53:06.844Z,9.81
2024-02-19T10:57:10.084Z,10.05
2024-02-19T11:01:13.059Z,10.60
2024-02-19T11:05:16.500Z,11.35
2024-02-19T11:09:28.685Z,11.62
2024-02-19T11:13:38.062Z,11.74
2024-02-19T11:17:44.180Z,12.24
2024-02-19T11:21:47.290Z,12.33
2024-02-19T11:25:51.611Z,12.02
2024-02-19T11:30:01.408Z,11.58
2024-02-19T11:34:04.503Z,11.26
2024-02-19T11:38:07.526Z,11.01
2024-02-19T11:42:15.873Z,10.86
2024-02-19T11:46:21.228Z,10.75
2024-02-19T11:50:28.243Z,10.65
2024-02-19T11:54:31.853Z,10.62
2024-02-19T11:58:38.862Z,10.61
2024-02-19T12:02:44.429Z,10.61
2024-02-19T12:06:47.548Z,10.72
2024-02-19T12:10:50.610Z,10.88
2024-02-19T12:14:54.890Z,10.87
2024-02-19T12:18:58.457Z,10.73
2024-02-19T12:23:02.283Z,10.60
2024-02-19T12:27:05.808Z,10.53
2024-02-19T12:31:10.640Z,10.56
2024-02-19T12:35:15.357Z,10.61
2024-02-19T12:39:19.018Z,10.59
2024-02-19T12:43:22.419Z,10.50
2024-02-19T12:47:27.391Z,10.41
2024-02-19T12:51:34.536Z,10.35
2024-02-19T12:55:37.814Z,10.55
2024-02-19T12:59:40.835Z,10.78
2024-02-19T13:03:45.568Z,11.05
2024-02-19T13:07:49.178Z,11.30
2024-02-19T13:11:52.152Z,11.64
2024-02-19T13:15:55.194Z,11.60
2024-02-19T13:19:59.730Z,11.50
2024-02-19T13:24:02.742Z,11.54
2024-02-19T13:28:06.334Z,11.77
2024-02-19T13:32:09.975Z,12.67
2024-02-19T13:36:14.948Z,12.79
2024-02-19T13:40:18.036Z,12.76
2024-02-19T13:44:22.704Z,13.89
2024-02-19T13:48:26.578Z,13.28
2024-02-19T13:52:30.931Z,12.60
2024-02-19T13:56:34.024Z,12.35
2024-02-19T14:00:36.954Z,12.58
2024-02-19T14:04:39.967Z,13.39
2024-02-19T14:08:44.663Z,13.61
2024-02-19T14:12:47.665Z,13.25
2024-02-19T14:16:51.029Z,12.88
2024-02-19T14:20:54.017Z,12.75
2024-02-19T14:24:58.412Z,12.62
2024-02-19T14:29:06.647Z,12.44
2024-02-19T14:33:10.428Z,12.49
2024-02-19T14:37:13.393Z,12.59
2024-02-19T14:41:17.764Z,12.58
2024-02-19T14:45:20.778Z,12.37
2024-02-19T14:49:23.905Z,12.29
2024-02-19T14:53:26.997Z,12.20
2024-02-19T14:57:31.331Z,12.04
2024-02-19T15:01:34.343Z,11.85
2024-02-19T15:05:37.499Z,11.66
2024-02-19T15:09:42.605Z,11.50
2024-02-19T15:13:47.995Z,11.34
2024-02-19T15:17:51.514Z,11.21
2024-02-19T15:21:54.643Z,11.11
2024-02-19T15:25:59.366Z,11.04
2024-02-19T15:30:07.662Z,10.98
2024-02-19T15:34:10.681Z,10.94
2024-02-19T15:38:14.101Z,10.87
2024-02-19T15:42:17.537Z,10.80
2024-02-19T15:46:21.864Z,10.73
2024-02-19T15:50:24.926Z,10.69
2024-02-19T15:54:29.396Z,10.62
2024-02-19T15:58:32.897Z,10.58
2024-02-19T16:02:41.332Z,10.54
2024-02-19T16:06:45.002Z,10.52
2024-02-19T16:10:49.344Z,10.50
2024-02-19T16:14:52.289Z,10.47
2024-02-19T16:18:57.303Z,10.43
2024-02-19T16:23:00.354Z,10.38
2024-02-19T16:27:04.838Z,10.33
2024-02-19T16:31:08.821Z,10.29
2024-02-19T16:35:13.386Z,10.24
2024-02-19T16:39:16.434Z,10.22
2024-02-19T16:43:19.456Z,10.18
2024-02-19T16:47:22.513Z,10.13
2024-02-19T16:51:26.948Z,10.12
2024-02-19T16:55:30.074Z,10.07
2024-02-19T16:59:33.087Z,10.06
2024-02-19T17:03:36.105Z,10.04
2024-02-19T17:07:40.569Z,9.99
2024-02-19T17:11:44.373Z,9.93
2024-02-19T17:15:47.383Z,9.87
2024-02-19T17:19:50.837Z,9.86
2024-02-19T17:23:55.421Z,9.83
2024-02-19T17:27:58.439Z,9.81
2024-02-19T17:32:01.514Z,9.77
2024-02-19T17:36:04.849Z,9.73
2024-02-19T17:40:12.527Z,9.69
2024-02-19T17:44:15.625Z,9.66
2024-02-19T17:48:19.516Z,9.65
2024-02-19T17:52:22.721Z,9.68
2024-02-19T17:56:27.420Z,9.71
2024-02-19T18:00:30.419Z,9.75
2024-02-19T18:04:33.516Z,9.74
2024-02-19T18:08:37.360Z,9.74
2024-02-19T18:12:41.661Z,9.71
2024-02-19T18:16:45.705Z,9.69
2024-02-19T18:20:50.178Z,9.70
2024-02-19T18:24:53.251Z,9.70
2024-02-19T18:28:57.652Z,9.71
2024-02-19T18:33:02.323Z,9.70
2024-02-19T18:37:06.202Z,9.66
2024-02-19T18:41:10.059Z,9.58
2024-02-19T18:45:14.678Z,9.46
2024-02-19T18:49:18.482Z,9.37
2024-02-19T18:53:21.522Z,9.32
2024-02-19T18:57:24.634Z,9.27
2024-02-19T19:01:29.094Z,9.24
2024-02-19T19:05:32.132Z,9.21
2024-02-19T19:09:40.766Z,9.17
2024-02-19T19:13:45.152Z,9.11
2024-02-19T19:17:50.766Z,9.04
2024-02-19T19:21:53.842Z,9.02
2024-02-19T19:25:57.488Z,9.01
2024-02-19T19:30:00.833Z,9.04
2024-02-19T19:34:05.320Z,9.04
2024-02-19T19:38:08.305Z,9.05
2024-02-19T19:42:11.183Z,9.10
2024-02-19T19:46:15.867Z,9.10
2024-02-19T19:50:20.601Z,9.12
2024-02-19T19:54:23.598Z,9.15
2024-02-19T19:58:32.074Z,9.18
2024-02-19T20:02:40.088Z,9.21
2024-02-19T20:06:45.420Z,9.23
2024-02-19T20:10:48.634Z,9.24
2024-02-19T20:14:52.934Z,9.26
2024-02-19T20:18:57.428Z,9.27
2024-02-19T20:23:01.917Z,9.26
2024-02-19T20:27:05.367Z,9.23
2024-02-19T20:31:08.385Z,9.20
2024-02-19T20:35:11.494Z,9.16
2024-02-19T20:39:15.971Z,9.13
2024-02-19T20:43:19.764Z,9.05
2024-02-19T20:47:22.750Z,8.91
2024-02-19T20:51:25.686Z,8.81
2024-02-19T20:55:30.400Z,8.71
2024-02-19T20:59:34.176Z,8.66
2024-02-19T21:03:43.036Z,8.63
2024-02-19T21:07:49.497Z,8.61
2024-02-19T21:11:54.112Z,8.61
2024-02-19T21:15:58.979Z,8.56
2024-02-19T21:20:02.375Z,8.50
2024-02-19T21:24:05.717Z,8.47
2024-02-19T21:28:10.044Z,8.44
2024-02-19T21:32:13.229Z,8.41
2024-02-19T21:36:16.919Z,8.40
2024-02-19T21:40:21.229Z,8.40
2024-02-19T21:44:27.386Z,8.37
2024-02-19T21:48:30.596Z,8.40
2024-02-19T21:52:33.720Z,8.41
2024-02-19T21:56:36.723Z,8.37
2024-02-19T22:00:41.105Z,8.34
2024-02-19T22:04:44.308Z,8.29
2024-02-19T22:08:47.438Z,8.25
2024-02-19T22:12:50.787Z,8.22
2024-02-19T22:16:55.180Z,8.22
2024-02-19T22:20:58.191Z,8.20
2024-02-19T22:25:01.267Z,8.17
2024-02-19T22:29:04.326Z,8.14
2024-02-19T22:33:08.788Z,8.13
2024-02-19T22:37:11.818Z,8.10
2024-02-19T22:41:15.394Z,8.11
2024-02-19T22:45:18.357Z,8.11
2024-02-19T22:49:22.814Z,8.09
2024-02-19T22:53:25.722Z,8.00
2024-02-19T22:57:28.850Z,7.94
2024-02-19T23:01:32.022Z,7.86
2024-02-19T23:05:36.653Z,7.80
2024-02-19T23:09:39.566Z,7.78
2024-02-19T23:13:42.523Z,7.78
2024-02-19T23:17:45.515Z,7.75
2024-02-19T23:21:49.892Z,7.77
2024-02-19T23:25:54.421Z,7.77
2024-02-19T23:29:57.462Z,7.77
2024-02-19T23:34:00.739Z,7.77
2024-02-19T23:38:05.743Z,7.73
2024-02-19T23:42:10.113Z,7.72
2024-02-19T23:46:13.164Z,7.69
2024-02-19T23:50:16.952Z,7.63
2024-02-19T23:54:21.510Z,7.65
2024-02-19T23:58:26.141Z,7.64
